Terminal Aerodrome Forecast
Issued by NWS

Home | Current Version | Previous Version | Text Only | Print | Product List | Glossary On
Versions: 1 2 3 4 5 6 7 8 9 10 11 12 13 14 15 16 17 18 19 20 21 22 23
000
FTUS42 KMHX 302004 AAA
TAFISO
TAF AMD
KISO 302004Z 3020/0118 09007KT P6SM BKN015
     FM302300 09008KT P6SM BKN035
     FM010600 VRB04KT P6SM BKN007
     FM011200 16004KT P6SM BKN015
     FM011400 20010KT P6SM SCT040 BKN120
      AMD LTD TO CLD VIS AND WIND=

USA.gov is the U.S. government's official web portal to all federal, state and local government web resources and services.